Time;durP1;ratioP1;P1;durP2;ratioP2;P2;SDS_P1;SDS_P2;PMS_P1;PMS_P2;Temp;Humidity;BMP_temperature;BMP_pressure;BME280_temperature;BME280_humidity;BME280_pressure;Samples;Min_cycle;Max_cycle;Signal;HPM_P1;HPM_P2
2021/05/02 00:00:04;;;;;;;36.30;27.02;;;;;;;;;;4948385;28;20031;-84
2021/05/02 00:02:49;;;;;;;34.50;26.58;;;;;;;;;;4960140;28;20366;-85
2021/05/02 00:05:35;;;;;;;36.88;28.42;;;;;;;;;;4956772;28;20031;-85
2021/05/02 00:08:21;;;;;;;39.70;31.67;;;;;;;;;;4948728;28;20774;-86
2021/05/02 00:11:07;;;;;;;36.70;28.10;;;;;;;;;;4943729;28;20089;-85
2021/05/02 00:13:52;;;;;;;37.33;29.77;;;;;;;;;;4957132;28;20367;-84
2021/05/02 00:16:37;;;;;;;33.45;25.55;;;;;;;;;;4952449;28;20038;-86
2021/05/02 00:19:23;;;;;;;36.38;28.40;;;;;;;;;;4952827;28;20057;-84
2021/05/02 00:22:09;;;;;;;32.95;25.38;;;;;;;;;;4946284;28;20540;-85
2021/05/02 00:24:54;;;;;;;28.45;23.40;;;;;;;;;;4958842;28;20047;-85
2021/05/02 00:27:40;;;;;;;32.60;27.20;;;;;;;;;;4947714;28;20054;-85
2021/05/02 00:30:26;;;;;;;28.33;23.65;;;;;;;;;;4951260;28;20041;-86
2021/05/02 00:33:11;;;;;;;29.40;23.40;;;;;;;;;;4947779;28;20493;-86
2021/05/02 00:35:57;;;;;;;31.65;22.67;;;;;;;;;;4958822;28;20089;-86
2021/05/02 00:38:42;;;;;;;28.75;23.48;;;;;;;;;;4940210;28;20120;-85
2021/05/02 00:41:28;;;;;;;29.63;23.60;;;;;;;;;;4956387;28;20023;-85
2021/05/02 00:44:16;;;;;;;29.23;23.25;;;;;;;;;;4934353;28;20455;-84
2021/05/02 00:47:07;;;;;;;26.15;21.48;;;;;;;;;;4951730;28;20026;-85
2021/05/02 00:49:56;;;;;;;33.15;25.83;;;;;;;;;;4955855;28;20015;-85
2021/05/02 00:53:03;;;;;;;32.75;24.17;;;;;;;;;;4954479;28;20136;-85
2021/05/02 00:55:57;;;;;;;33.20;25.33;;;;;;;;;;4945990;28;20060;-84
2021/05/02 00:58:48;;;;;;;32.92;27.58;;;;;;;;;;4946639;28;20097;-83
2021/05/02 01:01:38;;;;;;;33.67;28.52;;;;;;;;;;4953876;28;20134;-85
2021/05/02 01:04:24;;;;;;;31.48;23.48;;;;;;;;;;4952573;28;20117;-85
2021/05/02 01:07:18;;;;;;;33.40;26.73;;;;;;;;;;4945135;28;20046;-84
2021/05/02 01:10:04;;;;;;;37.78;29.70;;;;;;;;;;4953557;28;20111;-84
2021/05/02 01:12:51;;;;;;;38.08;29.20;;;;;;;;;;4952707;28;20054;-85
2021/05/02 01:15:37;;;;;;;36.83;28.90;;;;;;;;;;4948124;28;20165;-86
2021/05/02 01:18:23;;;;;;;30.45;26.38;;;;;;;;;;4951147;28;20571;-84
2021/05/02 01:21:12;;;;;;;35.95;26.42;;;;;;;;;;4954601;28;20023;-84
2021/05/02 01:23:58;;;;;;;30.77;23.35;;;;;;;;;;4947933;28;20069;-85
2021/05/02 01:26:45;;;;;;;35.03;25.52;;;;;;;;;;4954473;28;20042;-85
2021/05/02 01:29:30;;;;;;;39.15;29.48;;;;;;;;;;4944945;28;20381;-84
2021/05/02 01:32:15;;;;;;;35.78;27.23;;;;;;;;;;4955577;28;20115;-84
2021/05/02 01:35:02;;;;;;;31.38;25.42;;;;;;;;;;4955199;28;20026;-84
2021/05/02 01:37:48;;;;;;;27.35;22.55;;;;;;;;;;4959100;28;20398;-83
2021/05/02 01:40:33;;;;;;;28.58;21.50;;;;;;;;;;4954509;28;20027;-84
2021/05/02 01:43:18;;;;;;;29.15;23.33;;;;;;;;;;4947868;28;20022;-84
2021/05/02 01:46:04;;;;;;;27.23;21.60;;;;;;;;;;4952917;28;20595;-85
2021/05/02 01:48:50;;;;;;;33.42;26.13;;;;;;;;;;4945948;28;20482;-83
2021/05/02 01:51:35;;;;;;;29.02;22.83;;;;;;;;;;4947889;28;20027;-84
2021/05/02 01:54:21;;;;;;;29.80;23.67;;;;;;;;;;4949859;28;20023;-84
2021/05/02 01:57:07;;;;;;;30.83;24.17;;;;;;;;;;4952872;28;20033;-83
2021/05/02 01:59:53;;;;;;;30.23;24.73;;;;;;;;;;4935097;28;20038;-84
2021/05/02 02:02:40;;;;;;;28.88;23.45;;;;;;;;;;4958050;28;20505;-84
2021/05/02 02:05:25;;;;;;;31.95;25.33;;;;;;;;;;4942825;28;20035;-83
2021/05/02 02:08:11;;;;;;;36.72;26.95;;;;;;;;;;4952270;28;20027;-84
2021/05/02 02:10:56;;;;;;;36.85;28.05;;;;;;;;;;4949027;28;20026;-84
2021/05/02 02:13:46;;;;;;;29.67;24.83;;;;;;;;;;4954543;28;20362;-83
2021/05/02 02:16:31;;;;;;;32.35;26.40;;;;;;;;;;4952630;28;20091;-81
2021/05/02 02:19:16;;;;;;;28.88;23.23;;;;;;;;;;4952152;28;20035;-82
2021/05/02 02:22:02;;;;;;;36.55;28.05;;;;;;;;;;4951281;28;20124;-81
2021/05/02 02:24:57;;;;;;;31.20;26.63;;;;;;;;;;4957880;28;20055;-82
2021/05/02 02:27:42;;;;;;;23.00;20.58;;;;;;;;;;4947847;28;20093;-84
2021/05/02 02:30:28;;;;;;;30.13;24.38;;;;;;;;;;4957420;28;20109;-83
2021/05/02 02:33:13;;;;;;;37.05;28.85;;;;;;;;;;4952619;28;20019;-84
2021/05/02 02:35:59;;;;;;;29.80;24.35;;;;;;;;;;4951200;28;20474;-84
2021/05/02 02:38:45;;;;;;;34.78;27.38;;;;;;;;;;4957064;28;20477;-84
2021/05/02 02:41:32;;;;;;;34.17;27.45;;;;;;;;;;4953355;28;20494;-84
2021/05/02 02:44:20;;;;;;;34.33;28.08;;;;;;;;;;4949449;28;20035;-84
2021/05/02 02:47:05;;;;;;;32.38;27.25;;;;;;;;;;4946838;28;20023;-84
2021/05/02 02:49:56;;;;;;;31.33;26.70;;;;;;;;;;4950934;28;20030;-85
2021/05/02 02:52:49;;;;;;;36.10;26.85;;;;;;;;;;4954363;28;20049;-84
2021/05/02 02:55:36;;;;;;;35.25;29.08;;;;;;;;;;4958955;28;20019;-85
2021/05/02 02:58:23;;;;;;;32.33;24.00;;;;;;;;;;4949417;28;20022;-85
2021/05/02 03:01:09;;;;;;;34.15;27.08;;;;;;;;;;4949673;28;20019;-82
2021/05/02 03:03:57;;;;;;;38.38;27.58;;;;;;;;;;4957760;28;20034;-85
2021/05/02 03:06:42;;;;;;;34.90;29.70;;;;;;;;;;4953588;28;20026;-85
2021/05/02 03:09:28;;;;;;;36.30;29.58;;;;;;;;;;4948323;28;20018;-83
2021/05/02 03:12:16;;;;;;;41.38;31.67;;;;;;;;;;4953731;28;20397;-84
2021/05/02 03:15:01;;;;;;;38.60;31.55;;;;;;;;;;4963591;28;20026;-83
2021/05/02 03:17:53;;;;;;;34.85;27.67;;;;;;;;;;4951144;28;20051;-84
2021/05/02 03:20:39;;;;;;;34.22;28.13;;;;;;;;;;4951415;28;20034;-84
2021/05/02 03:23:51;;;;;;;35.97;30.23;;;;;;;;;;4955413;28;20405;-83
2021/05/02 03:26:36;;;;;;;38.08;31.30;;;;;;;;;;4955050;28;20054;-85
2021/05/02 03:29:22;;;;;;;35.70;28.63;;;;;;;;;;4952372;28;20138;-84
2021/05/02 03:32:09;;;;;;;30.33;25.13;;;;;;;;;;4961069;28;20046;-84
2021/05/02 03:34:56;;;;;;;34.08;26.33;;;;;;;;;;4952346;28;20034;-84
2021/05/02 03:37:46;;;;;;;30.50;25.73;;;;;;;;;;4950786;28;20026;-83
2021/05/02 03:40:31;;;;;;;39.33;28.83;;;;;;;;;;4949525;28;20473;-84
2021/05/02 03:43:17;;;;;;;35.95;28.40;;;;;;;;;;4955562;28;20081;-84
2021/05/02 03:46:02;;;;;;;39.78;31.70;;;;;;;;;;4958460;28;20019;-83
2021/05/02 03:48:47;;;;;;;37.80;31.58;;;;;;;;;;4953804;28;20039;-85
2021/05/02 03:51:36;;;;;;;39.42;33.20;;;;;;;;;;4959624;28;20448;-83
2021/05/02 03:54:22;;;;;;;39.85;32.20;;;;;;;;;;4947875;28;20044;-83
2021/05/02 03:57:07;;;;;;;38.97;33.13;;;;;;;;;;4942904;28;20441;-84
2021/05/02 03:59:52;;;;;;;39.85;31.33;;;;;;;;;;4953303;28;20130;-85
2021/05/02 04:02:38;;;;;;;38.35;31.00;;;;;;;;;;4964810;28;20121;-84
2021/05/02 04:05:23;;;;;;;41.55;33.40;;;;;;;;;;4952316;28;20108;-84
2021/05/02 04:08:10;;;;;;;34.90;29.20;;;;;;;;;;4954838;28;20101;-84
2021/05/02 04:10:55;;;;;;;36.03;29.15;;;;;;;;;;4950638;28;20726;-84
2021/05/02 04:13:40;;;;;;;43.83;34.22;;;;;;;;;;4955465;28;20596;-85
2021/05/02 04:16:25;;;;;;;52.08;40.95;;;;;;;;;;4958081;28;20606;-84
2021/05/02 04:19:11;;;;;;;36.63;28.88;;;;;;;;;;4951493;28;20105;-84
2021/05/02 04:21:56;;;;;;;39.25;32.88;;;;;;;;;;4964133;28;20065;-84
2021/05/02 04:24:41;;;;;;;34.55;28.52;;;;;;;;;;4949122;28;20078;-84
2021/05/02 04:27:27;;;;;;;40.53;33.78;;;;;;;;;;4954550;28;20031;-84
2021/05/02 04:30:12;;;;;;;38.92;31.63;;;;;;;;;;4956943;28;20007;-84
2021/05/02 04:32:57;;;;;;;39.05;30.98;;;;;;;;;;4953554;28;20030;-84
2021/05/02 04:35:42;;;;;;;42.58;35.88;;;;;;;;;;4948567;28;20022;-84
2021/05/02 04:38:28;;;;;;;37.30;30.55;;;;;;;;;;4951603;28;20361;-84
2021/05/02 04:41:13;;;;;;;45.40;36.55;;;;;;;;;;4949121;28;20033;-84
2021/05/02 04:43:58;;;;;;;53.85;37.45;;;;;;;;;;4958227;28;20373;-84
2021/05/02 04:46:43;;;;;;;41.92;34.20;;;;;;;;;;4955196;28;20030;-84
2021/05/02 04:49:29;;;;;;;48.45;37.92;;;;;;;;;;4950742;28;20015;-84
2021/05/02 04:52:15;;;;;;;46.85;37.40;;;;;;;;;;4950417;28;20638;-85
2021/05/02 04:55:00;;;;;;;40.97;31.75;;;;;;;;;;4966761;28;20477;-84
2021/05/02 04:57:45;;;;;;;39.10;33.17;;;;;;;;;;4946528;28;20027;-84
2021/05/02 05:00:30;;;;;;;50.63;38.15;;;;;;;;;;4954290;28;20385;-84
2021/05/02 05:03:16;;;;;;;46.28;38.17;;;;;;;;;;4951084;28;20037;-85
2021/05/02 05:06:01;;;;;;;37.92;32.13;;;;;;;;;;4950490;28;20035;-84
2021/05/02 05:08:47;;;;;;;35.95;30.45;;;;;;;;;;4949321;28;20050;-84
2021/05/02 05:11:32;;;;;;;41.78;32.42;;;;;;;;;;4951788;28;20373;-84
2021/05/02 05:14:18;;;;;;;36.95;32.35;;;;;;;;;;4949322;28;20018;-84
2021/05/02 05:17:03;;;;;;;34.97;29.05;;;;;;;;;;4952514;28;20023;-83
2021/05/02 05:19:48;;;;;;;37.10;31.27;;;;;;;;;;4955086;28;20027;-85
2021/05/02 05:22:33;;;;;;;38.60;31.77;;;;;;;;;;4951770;28;20084;-84
2021/05/02 05:25:19;;;;;;;39.05;34.28;;;;;;;;;;4959987;28;20532;-84
2021/05/02 05:28:04;;;;;;;36.50;31.00;;;;;;;;;;4945503;28;20110;-85
2021/05/02 05:30:53;;;;;;;38.22;31.73;;;;;;;;;;4956384;28;20030;-84
2021/05/02 05:33:38;;;;;;;48.10;36.33;;;;;;;;;;4943955;28;20031;-84
2021/05/02 05:36:24;;;;;;;37.97;32.70;;;;;;;;;;4950989;28;20500;-84
2021/05/02 05:39:09;;;;;;;43.47;35.88;;;;;;;;;;4961061;28;20354;-85
2021/05/02 05:41:54;;;;;;;37.67;32.38;;;;;;;;;;4948755;28;20748;-84
2021/05/02 05:44:39;;;;;;;40.60;35.25;;;;;;;;;;4946997;28;20038;-84
2021/05/02 05:47:26;;;;;;;38.45;32.38;;;;;;;;;;4947518;28;20031;-84
2021/05/02 05:50:14;;;;;;;40.65;34.80;;;;;;;;;;4954712;28;20476;-84
2021/05/02 05:53:00;;;;;;;50.03;39.42;;;;;;;;;;4954083;28;20535;-84
2021/05/02 05:55:45;;;;;;;40.72;34.50;;;;;;;;;;4949426;28;20101;-84
2021/05/02 05:58:32;;;;;;;33.85;27.60;;;;;;;;;;4950279;28;20041;-86
2021/05/02 06:01:17;;;;;;;36.97;28.80;;;;;;;;;;4957155;28;20026;-84
2021/05/02 06:04:05;;;;;;;34.80;30.33;;;;;;;;;;4952146;28;20022;-83
2021/05/02 06:06:50;;;;;;;38.80;33.30;;;;;;;;;;4954908;28;20031;-84
2021/05/02 06:09:35;;;;;;;39.45;33.30;;;;;;;;;;4954586;28;20477;-83
2021/05/02 06:12:20;;;;;;;34.00;30.35;;;;;;;;;;4948449;28;20663;-85
2021/05/02 06:15:06;;;;;;;32.42;26.75;;;;;;;;;;4943416;28;20023;-85
2021/05/02 06:17:51;;;;;;;26.20;23.23;;;;;;;;;;4958327;28;20025;-83
2021/05/02 06:20:36;;;;;;;28.25;22.85;;;;;;;;;;4947138;28;20094;-83
2021/05/02 06:23:21;;;;;;;24.67;21.23;;;;;;;;;;4955420;28;20081;-84
2021/05/02 06:26:07;;;;;;;26.08;22.30;;;;;;;;;;4948013;28;20122;-84
2021/05/02 06:28:52;;;;;;;24.00;21.30;;;;;;;;;;4958808;28;20093;-84
2021/05/02 06:31:40;;;;;;;25.13;22.42;;;;;;;;;;4951397;28;20031;-84
2021/05/02 06:34:25;;;;;;;25.60;22.40;;;;;;;;;;4950767;28;20584;-84
2021/05/02 06:37:10;;;;;;;23.95;20.00;;;;;;;;;;4955896;28;20062;-85
2021/05/02 06:39:56;;;;;;;28.80;21.52;;;;;;;;;;4956539;28;20026;-84
2021/05/02 06:42:41;;;;;;;27.52;23.75;;;;;;;;;;4956385;28;20026;-84
2021/05/02 06:45:26;;;;;;;25.52;22.67;;;;;;;;;;4967976;28;20035;-84
2021/05/02 06:48:12;;;;;;;23.10;19.90;;;;;;;;;;4955262;28;20034;-84
2021/05/02 06:50:57;;;;;;;20.23;18.05;;;;;;;;;;4939765;28;20125;-83
2021/05/02 06:53:42;;;;;;;20.58;18.35;;;;;;;;;;4947521;28;20030;-84
2021/05/02 06:56:28;;;;;;;21.20;18.17;;;;;;;;;;4959314;28;20091;-83
2021/05/02 06:59:13;;;;;;;24.48;17.80;;;;;;;;;;4938629;28;20030;-84
2021/05/02 07:01:58;;;;;;;19.40;17.33;;;;;;;;;;4951024;28;20054;-84
2021/05/02 07:04:43;;;;;;;20.65;17.05;;;;;;;;;;4960896;28;20039;-85
2021/05/02 07:07:29;;;;;;;19.63;17.58;;;;;;;;;;4950994;28;20066;-86
2021/05/02 07:10:14;;;;;;;19.80;16.98;;;;;;;;;;4949540;28;20080;-85
2021/05/02 07:12:59;;;;;;;19.85;16.25;;;;;;;;;;4953027;28;20411;-86
2021/05/02 07:15:45;;;;;;;24.45;16.88;;;;;;;;;;4959162;28;20034;-84
2021/05/02 07:18:36;;;;;;;21.33;17.02;;;;;;;;;;4943234;28;20023;-85
2021/05/02 07:21:22;;;;;;;22.02;18.45;;;;;;;;;;4958917;28;20109;-85
2021/05/02 07:24:07;;;;;;;20.05;16.85;;;;;;;;;;4958385;28;20022;-84
2021/05/02 07:26:53;;;;;;;18.48;15.52;;;;;;;;;;4959769;28;20069;-85
2021/05/02 07:29:38;;;;;;;16.50;14.13;;;;;;;;;;4950408;28;20027;-85
2021/05/02 07:35:35;;;;;;;18.33;16.15;;;;;;;;;;4936550;28;20058;-85
2021/05/02 07:38:20;;;;;;;20.40;16.65;;;;;;;;;;4958724;28;20425;-84
2021/05/02 07:41:05;;;;;;;19.70;15.15;;;;;;;;;;4952396;28;20030;-85
2021/05/02 07:43:51;;;;;;;21.60;14.65;;;;;;;;;;4949562;28;20023;-85
2021/05/02 07:46:36;;;;;;;15.52;13.85;;;;;;;;;;4962282;28;20393;-84
2021/05/02 07:49:21;;;;;;;16.45;13.57;;;;;;;;;;4949209;28;20029;-85
2021/05/02 07:52:06;;;;;;;14.93;12.52;;;;;;;;;;4952249;28;20023;-85
2021/05/02 07:54:52;;;;;;;17.60;14.90;;;;;;;;;;4954633;28;20470;-85
2021/05/02 07:57:37;;;;;;;17.48;13.57;;;;;;;;;;4948498;28;20097;-84
2021/05/02 08:00:22;;;;;;;20.98;14.50;;;;;;;;;;4952168;28;20069;-84
2021/05/02 08:03:08;;;;;;;18.60;13.73;;;;;;;;;;4945922;28;20117;-84
2021/05/02 08:05:53;;;;;;;15.52;12.65;;;;;;;;;;4953380;28;20018;-84
2021/05/02 08:08:38;;;;;;;16.88;13.10;;;;;;;;;;4958935;28;20545;-83
2021/05/02 08:11:23;;;;;;;17.90;13.00;;;;;;;;;;4956568;28;20071;-84
2021/05/02 08:14:08;;;;;;;15.70;12.25;;;;;;;;;;4947435;28;20664;-84
2021/05/02 08:16:57;;;;;;;16.38;14.07;;;;;;;;;;4956929;28;20537;-83
2021/05/02 08:19:42;;;;;;;16.50;11.43;;;;;;;;;;4963080;28;20062;-81
2021/05/02 08:22:27;;;;;;;20.85;12.68;;;;;;;;;;4955194;28;20057;-83
2021/05/02 08:25:12;;;;;;;15.30;11.88;;;;;;;;;;4959370;28;20502;-84
2021/05/02 08:27:58;;;;;;;15.13;11.70;;;;;;;;;;4966812;28;20049;-83
2021/05/02 08:30:43;;;;;;;19.83;12.60;;;;;;;;;;4954184;28;20122;-83
2021/05/02 08:33:28;;;;;;;14.63;11.55;;;;;;;;;;4962154;28;20049;-82
2021/05/02 08:36:13;;;;;;;13.98;12.45;;;;;;;;;;4966244;28;20046;-83
2021/05/02 08:38:59;;;;;;;14.98;11.57;;;;;;;;;;4956003;28;20511;-83
2021/05/02 08:41:44;;;;;;;16.27;12.52;;;;;;;;;;4957254;28;20027;-84
2021/05/02 08:44:29;;;;;;;15.85;12.52;;;;;;;;;;4966369;28;20030;-84
2021/05/02 08:47:15;;;;;;;16.23;13.02;;;;;;;;;;4953814;28;20537;-84
2021/05/02 08:50:00;;;;;;;15.25;12.63;;;;;;;;;;4959086;28;20117;-85
2021/05/02 08:52:46;;;;;;;15.32;12.05;;;;;;;;;;4962557;28;20078;-84
2021/05/02 08:55:31;;;;;;;16.88;12.95;;;;;;;;;;4958606;28;20030;-84
2021/05/02 08:58:17;;;;;;;13.82;11.63;;;;;;;;;;4961420;28;20022;-84
2021/05/02 09:01:03;;;;;;;13.55;11.02;;;;;;;;;;4960119;28;20026;-84
2021/05/02 09:03:48;;;;;;;13.13;11.50;;;;;;;;;;4958688;28;20030;-84
2021/05/02 09:06:36;;;;;;;13.40;11.23;;;;;;;;;;4956235;28;20047;-84
2021/05/02 09:09:21;;;;;;;18.67;11.55;;;;;;;;;;4956105;28;20504;-83
2021/05/02 09:12:17;;;;;;;15.43;11.30;;;;;;;;;;4953013;28;20635;-84
2021/05/02 09:15:06;;;;;;;15.50;11.57;;;;;;;;;;4960738;28;20018;-83
2021/05/02 09:17:56;;;;;;;13.95;11.18;;;;;;;;;;4963128;28;20030;-83
2021/05/02 09:20:48;;;;;;;19.77;13.48;;;;;;;;;;4955208;28;20114;-85
2021/05/02 09:23:37;;;;;;;15.65;11.15;;;;;;;;;;4953659;28;20019;-84
2021/05/02 09:26:24;;;;;;;17.08;10.85;;;;;;;;;;4954451;28;20046;-84
2021/05/02 09:29:09;;;;;;;16.88;11.73;;;;;;;;;;4959555;28;20125;-84
2021/05/02 09:31:54;;;;;;;16.85;11.50;;;;;;;;;;4955356;28;20014;-84
2021/05/02 09:35:00;;;;;;;14.32;12.20;;;;;;;;;;4950247;28;20022;-84
2021/05/02 09:37:45;;;;;;;15.43;12.60;;;;;;;;;;4960047;28;20390;-83
2021/05/02 09:40:42;;;;;;;12.68;10.63;;;;;;;;;;4959930;28;20664;-84
2021/05/02 09:43:29;;;;;;;16.92;13.98;;;;;;;;;;4960802;28;20061;-85
2021/05/02 09:46:28;;;;;;;17.15;14.20;;;;;;;;;;4961697;28;20026;-84
2021/05/02 09:49:18;;;;;;;16.38;13.65;;;;;;;;;;4953392;28;20037;-84
2021/05/02 09:52:03;;;;;;;16.85;12.57;;;;;;;;;;4959419;28;20023;-84
2021/05/02 09:54:48;;;;;;;15.88;13.07;;;;;;;;;;4962857;28;20453;-84
2021/05/02 09:57:34;;;;;;;14.52;12.88;;;;;;;;;;4960982;28;20030;-83
2021/05/02 10:00:28;;;;;;;15.30;12.60;;;;;;;;;;4964534;28;20444;-87
2021/05/02 10:03:17;;;;;;;15.18;13.43;;;;;;;;;;4972577;28;20710;-84
2021/05/02 10:06:08;;;;;;;20.80;14.52;;;;;;;;;;4963881;28;20030;-84
2021/05/02 10:08:54;;;;;;;16.52;14.05;;;;;;;;;;4962022;28;20055;-83
2021/05/02 10:11:39;;;;;;;16.88;12.95;;;;;;;;;;4966974;28;20028;-86
2021/05/02 10:14:28;;;;;;;20.50;17.90;;;;;;;;;;4965892;28;20026;-85
2021/05/02 10:17:14;;;;;;;37.22;30.52;;;;;;;;;;4959969;28;20030;-85
2021/05/02 10:19:59;;;;;;;17.30;13.82;;;;;;;;;;4955918;28;20019;-86
2021/05/02 10:22:44;;;;;;;15.50;13.23;;;;;;;;;;4963313;28;20141;-85
2021/05/02 10:25:30;;;;;;;14.10;11.57;;;;;;;;;;4963403;28;20141;-86
2021/05/02 10:28:16;;;;;;;15.93;13.38;;;;;;;;;;4966730;28;20023;-86
2021/05/02 10:31:06;;;;;;;17.55;13.45;;;;;;;;;;4960021;28;20107;-85
2021/05/02 10:33:51;;;;;;;;;;;;;;;;;;4959377;28;20026;-85
2021/05/02 10:36:36;;;;;;;16.42;12.73;;;;;;;;;;4956313;28;20036;-86
2021/05/02 10:39:21;;;;;;;14.52;12.98;;;;;;;;;;4965285;28;20132;-86
2021/05/02 10:42:06;;;;;;;13.98;12.35;;;;;;;;;;4957522;28;20035;-86
2021/05/02 10:44:54;;;;;;;15.35;13.20;;;;;;;;;;4962147;28;20494;-86
2021/05/02 10:47:43;;;;;;;16.40;12.25;;;;;;;;;;4967691;28;20026;-86
2021/05/02 10:50:28;;;;;;;14.77;11.63;;;;;;;;;;4950124;28;20033;-85
2021/05/02 10:53:14;;;;;;;19.35;13.43;;;;;;;;;;4962887;28;20596;-85
2021/05/02 10:56:05;;;;;;;20.35;13.55;;;;;;;;;;4961222;28;20073;-85
2021/05/02 10:58:56;;;;;;;18.60;12.95;;;;;;;;;;4950275;28;20022;-86
2021/05/02 11:01:42;;;;;;;15.77;12.13;;;;;;;;;;4943641;28;20514;-85
2021/05/02 11:04:47;;;;;;;15.05;12.05;;;;;;;;;;4967924;28;20082;-86
2021/05/02 11:07:42;;;;;;;15.25;12.35;;;;;;;;;;4957271;28;20031;-85
2021/05/02 11:10:47;;;;;;;15.75;11.88;;;;;;;;;;4967567;28;20604;-85
2021/05/02 11:13:33;;;;;;;13.70;11.57;;;;;;;;;;4971136;28;20045;-85
2021/05/02 11:16:22;;;;;;;14.13;11.15;;;;;;;;;;4961854;28;20030;-85
2021/05/02 11:19:12;;;;;;;15.73;12.30;;;;;;;;;;4963144;28;20018;-85
2021/05/02 11:22:01;;;;;;;;;;;;;;;;;;4967283;28;20037;-86
2021/05/02 11:24:51;;;;;;;18.17;14.95;;;;;;;;;;4961484;28;19957;-85
2021/05/02 11:27:40;;;;;;;;;;;;;;;;;;4955807;28;20023;-85
2021/05/02 11:30:31;;;;;;;15.17;11.70;;;;;;;;;;4962457;28;19920;-86
2021/05/02 11:33:22;;;;;;;13.32;11.20;;;;;;;;;;4956190;28;20255;-87
2021/05/02 11:36:07;;;;;;;13.70;11.48;;;;;;;;;;4960381;28;20026;-86
2021/05/02 11:38:52;;;;;;;11.82;9.75;;;;;;;;;;4960005;28;20489;-85
2021/05/02 11:41:56;;;;;;;12.13;10.55;;;;;;;;;;4961051;28;20167;-86
2021/05/02 11:44:42;;;;;;;12.00;10.07;;;;;;;;;;4961712;28;20029;-85
2021/05/02 11:47:31;;;;;;;13.60;9.70;;;;;;;;;;4967692;28;20109;-87
2021/05/02 11:50:17;;;;;;;12.48;9.95;;;;;;;;;;4956044;28;20110;-86
2021/05/02 11:53:02;;;;;;;14.32;10.02;;;;;;;;;;4961770;28;20569;-85
2021/05/02 11:55:50;;;;;;;14.20;12.52;;;;;;;;;;4967849;28;20034;-85
2021/05/02 11:58:35;;;;;;;12.25;10.98;;;;;;;;;;4958092;28;20046;-85
2021/05/02 12:01:28;;;;;;;12.13;10.15;;;;;;;;;;4963682;28;20033;-86
2021/05/02 12:04:16;;;;;;;13.80;11.32;;;;;;;;;;4955135;28;20058;-86
2021/05/02 12:07:01;;;;;;;12.27;10.80;;;;;;;;;;4968126;28;20026;-85
2021/05/02 12:09:46;;;;;;;11.95;10.05;;;;;;;;;;4954357;28;20128;-85
2021/05/02 12:12:38;;;;;;;11.20;9.15;;;;;;;;;;4948998;28;20034;-86
2021/05/02 12:15:23;;;;;;;12.50;8.85;;;;;;;;;;4961212;28;20054;-87
2021/05/02 12:18:08;;;;;;;13.60;9.68;;;;;;;;;;4958777;28;20476;-86
2021/05/02 12:21:09;;;;;;;13.80;10.68;;;;;;;;;;4964431;28;20035;-86
2021/05/02 12:24:03;;;;;;;10.57;8.68;;;;;;;;;;4964250;28;20109;-86
2021/05/02 12:26:49;;;;;;;11.25;8.68;;;;;;;;;;4959676;28;20073;-87
2021/05/02 12:29:35;;;;;;;9.23;7.90;;;;;;;;;;4955003;28;20148;-86
2021/05/02 12:32:23;;;;;;;9.35;7.60;;;;;;;;;;4962287;28;20109;-87
2021/05/02 12:35:09;;;;;;;9.35;7.45;;;;;;;;;;4964907;28;20050;-84
2021/05/02 12:37:54;;;;;;;9.15;7.70;;;;;;;;;;4944391;28;20050;-86
2021/05/02 12:40:49;;;;;;;11.60;6.60;;;;;;;;;;4962464;28;20023;-86
2021/05/02 12:43:35;;;;;;;7.30;5.57;;;;;;;;;;4967035;28;20030;-86
2021/05/02 12:46:40;;;;;;;8.27;6.57;;;;;;;;;;4959520;28;20026;-86
2021/05/02 12:49:29;;;;;;;7.00;5.93;;;;;;;;;;4965904;28;20026;-85
2021/05/02 12:52:14;;;;;;;7.35;5.40;;;;;;;;;;4964224;28;20082;-86
2021/05/02 12:55:35;;;;;;;5.68;4.93;;;;;;;;;;4952324;28;20085;-85
2021/05/02 12:58:41;;;;;;;6.13;5.10;;;;;;;;;;4863047;29;20075;-85
2021/05/02 13:01:27;;;;;;;6.93;5.45;;;;;;;;;;4968097;28;20048;-86
2021/05/02 13:04:14;;;;;;;5.82;5.20;;;;;;;;;;4961568;28;20022;-86
2021/05/02 13:06:59;;;;;;;8.52;5.75;;;;;;;;;;4956266;28;20556;-86
2021/05/02 13:09:45;;;;;;;10.15;5.90;;;;;;;;;;4965221;28;20499;-86
2021/05/02 13:12:49;;;;;;;9.35;7.07;;;;;;;;;;4960085;28;20157;-85
2021/05/02 13:15:41;;;;;;;9.43;6.65;;;;;;;;;;4957644;28;20095;-86
2021/05/02 13:18:35;;;;;;;16.08;13.90;;;;;;;;;;4952609;28;20121;-86
2021/05/02 13:21:24;;;;;;;11.98;9.05;;;;;;;;;;4957277;28;20026;-85
2021/05/02 13:24:09;;;;;;;11.27;8.65;;;;;;;;;;4963689;28;20481;-86
2021/05/02 13:26:54;;;;;;;10.02;7.82;;;;;;;;;;4950868;28;20084;-86
2021/05/02 13:29:46;;;;;;;9.05;6.72;;;;;;;;;;4968650;28;20381;-86
2021/05/02 13:32:51;;;;;;;10.18;7.85;;;;;;;;;;4960989;28;20129;-86
2021/05/02 13:35:46;;;;;;;8.25;7.10;;;;;;;;;;4962428;28;20531;-86
2021/05/02 13:38:32;;;;;;;9.90;7.88;;;;;;;;;;4956057;28;20474;-85
2021/05/02 13:41:18;;;;;;;10.02;8.68;;;;;;;;;;4963654;28;20029;-85
2021/05/02 13:44:14;;;;;;;10.90;8.45;;;;;;;;;;4957106;28;20030;-85
2021/05/02 13:46:59;;;;;;;10.68;8.70;;;;;;;;;;4964369;28;20030;-85
2021/05/02 13:49:45;;;;;;;9.20;8.15;;;;;;;;;;4964768;28;20025;-85
2021/05/02 13:52:32;;;;;;;11.73;8.85;;;;;;;;;;4950731;28;20093;-84
2021/05/02 13:55:18;;;;;;;10.32;7.93;;;;;;;;;;4962879;28;20102;-86
2021/05/02 13:58:09;;;;;;;17.85;11.23;;;;;;;;;;4952233;28;20025;-86
2021/05/02 14:00:55;;;;;;;11.93;8.40;;;;;;;;;;4954359;28;20030;-85
2021/05/02 14:03:41;;;;;;;11.02;8.18;;;;;;;;;;4958344;28;20104;-86
2021/05/02 14:06:27;;;;;;;9.98;8.60;;;;;;;;;;4961975;28;20449;-86
2021/05/02 14:09:12;;;;;;;12.30;8.30;;;;;;;;;;4954940;28;20114;-86
2021/05/02 14:11:57;;;;;;;11.50;8.73;;;;;;;;;;4962205;28;20026;-87
2021/05/02 14:14:42;;;;;;;9.52;8.48;;;;;;;;;;4963270;28;20482;-87
2021/05/02 14:17:28;;;;;;;10.40;8.27;;;;;;;;;;4958359;28;20518;-85
2021/05/02 14:20:13;;;;;;;11.02;7.80;;;;;;;;;;4956915;28;20685;-85
2021/05/02 14:22:58;;;;;;;9.65;8.13;;;;;;;;;;4959533;28;20026;-85
2021/05/02 14:25:50;;;;;;;10.68;8.43;;;;;;;;;;4960032;28;20544;-86
2021/05/02 14:28:36;;;;;;;10.77;8.27;;;;;;;;;;4954718;28;20056;-85
2021/05/02 14:31:21;;;;;;;11.25;8.85;;;;;;;;;;4966650;28;20117;-86
2021/05/02 14:34:10;;;;;;;9.48;7.38;;;;;;;;;;4961896;28;20053;-86
2021/05/02 14:36:59;;;;;;;9.32;7.32;;;;;;;;;;4955945;28;20038;-87
2021/05/02 14:39:45;;;;;;;12.50;8.02;;;;;;;;;;4952260;28;20035;-85
2021/05/02 14:42:30;;;;;;;12.50;7.60;;;;;;;;;;4962722;28;20505;-85
2021/05/02 14:45:18;;;;;;;9.48;6.93;;;;;;;;;;4958015;28;20042;-86
2021/05/02 14:48:03;;;;;;;13.18;7.28;;;;;;;;;;4959392;28;20027;-85
2021/05/02 14:50:48;;;;;;;7.97;6.32;;;;;;;;;;4961300;28;20077;-85
2021/05/02 14:53:34;;;;;;;9.18;6.88;;;;;;;;;;4963225;28;20031;-85
2021/05/02 14:56:19;;;;;;;11.32;7.53;;;;;;;;;;4960820;28;20019;-85
2021/05/02 14:59:05;;;;;;;10.38;6.20;;;;;;;;;;4961181;28;20018;-86
2021/05/02 15:01:53;;;;;;;10.10;6.75;;;;;;;;;;4960288;28;20381;-85
2021/05/02 15:04:38;;;;;;;11.02;7.63;;;;;;;;;;4964261;28;20485;-85
2021/05/02 15:07:23;;;;;;;8.00;6.53;;;;;;;;;;4963277;28;20112;-85
2021/05/02 15:10:11;;;;;;;10.88;8.02;;;;;;;;;;4957873;28;20019;-85
2021/05/02 15:12:56;;;;;;;8.75;6.55;;;;;;;;;;4959867;28;20109;-86
2021/05/02 15:15:42;;;;;;;8.75;7.25;;;;;;;;;;4965825;28;20111;-86
2021/05/02 15:18:27;;;;;;;10.23;7.00;;;;;;;;;;4947242;28;20015;-86
2021/05/02 15:21:12;;;;;;;8.98;7.10;;;;;;;;;;4955883;28;20025;-85
2021/05/02 15:23:57;;;;;;;11.05;7.30;;;;;;;;;;4956913;28;20485;-86
2021/05/02 15:26:43;;;;;;;11.77;8.13;;;;;;;;;;4962534;28;20147;-85
2021/05/02 15:29:28;;;;;;;10.35;7.53;;;;;;;;;;4967194;28;20019;-85
2021/05/02 15:32:14;;;;;;;11.00;7.40;;;;;;;;;;4959422;28;20023;-85
2021/05/02 15:34:59;;;;;;;9.18;6.50;;;;;;;;;;4959318;28;20382;-85
2021/05/02 15:37:45;;;;;;;9.50;7.47;;;;;;;;;;4964307;28;20027;-85
2021/05/02 15:40:30;;;;;;;10.52;7.72;;;;;;;;;;4954617;28;20034;-85
2021/05/02 15:43:16;;;;;;;11.95;9.43;;;;;;;;;;4949201;28;20022;-85
2021/05/02 15:46:02;;;;;;;25.77;19.40;;;;;;;;;;4961645;28;20382;-85
2021/05/02 15:48:47;;;;;;;9.50;7.78;;;;;;;;;;4948953;28;20023;-87
2021/05/02 15:51:33;;;;;;;9.00;7.18;;;;;;;;;;4942540;28;20085;-86
2021/05/02 15:54:18;;;;;;;11.75;7.22;;;;;;;;;;4962147;28;20501;-85
2021/05/02 15:57:03;;;;;;;10.35;6.38;;;;;;;;;;4956452;28;20035;-85
2021/05/02 15:59:49;;;;;;;7.38;5.50;;;;;;;;;;4970405;28;20054;-86
2021/05/02 16:02:34;;;;;;;9.77;5.78;;;;;;;;;;4960201;28;20026;-85
2021/05/02 16:05:19;;;;;;;10.10;6.05;;;;;;;;;;4963703;28;20039;-86
2021/05/02 16:08:04;;;;;;;10.38;5.43;;;;;;;;;;4961553;28;20022;-85
2021/05/02 16:10:52;;;;;;;6.53;5.13;;;;;;;;;;4962431;28;20083;-85
2021/05/02 16:13:37;;;;;;;6.57;4.50;;;;;;;;;;4958828;28;20034;-84
2021/05/02 16:16:22;;;;;;;8.15;5.03;;;;;;;;;;4958723;28;20060;-86
2021/05/02 16:19:09;;;;;;;6.45;5.13;;;;;;;;;;4969232;28;20489;-86
2021/05/02 16:21:54;;;;;;;17.08;11.77;;;;;;;;;;4964133;28;20029;-84